KBRG/BRG METAR and TAF weather

Enter ICAO airport designator
Station Type Date Time Source
KBRG METAR 2022/08/16 19:55 UTC NOAA

KBRG 161955Z AUTO 16004KT 10SM CLR 32/09 A3012 RMK AO2 T03190088


Station Type Date Time Source
KBRG Decoded METAR 2022/08/16 19:55 UTC NOAA

Station name not available
Aug 16, 2022 - 03:55 PM EDT / 2022.08.16 1955 UTC
Wind: from the SSE (160 degrees) at 5 MPH (4 KT):0
Visibility: 10 mile(s):0
Sky conditions: clear
Temperature: 89.4 F (31.9 C)
Dew Point: 47.8 F (8.8 C)
Relative Humidity: 23%
Pressure (altimeter): 30.12 in. Hg (1019 hPa)
ob: KBRG 161955Z AUTO 16004KT 10SM CLR 32/09 A3012 RMK AO2 T03190088
cycle: 20

Station Type Date Time Source
KBRG TAF 2012/07/03 12:12 UTC NOAA

TAF SKBRG 031000Z 031212 VRB02KT 9999 FEW017 SCT080
TEMPO 0312/0317 11005KT VCTS - DZRAFEW015CB BKN070
TEMPO 0318/0323 TSRA FEW017CB BKN070
TEMPO 0400/0402 VCTS FEW020CB
TEMPO 0402/0406 -DZ SCT015CB
TEMPO 0408/0412 00000KT 5000 BCFG FEW005 TX23/0319Z TN10/0411Z

Example: see airport list